Charter Quote
Worldwide +1-877-727-2538 Call
Select Language Lang
SAFETY RELIABILITY EXPERIENCE

Private Jet Charter Services - Qamdo Bangda Airport (ZUBD)

Paramount Business Jets offers private jet charter flights and luxury airliner charters to and from Qamdo Bangda Airport.

AIRPORT INFORMATION
ICAOZUBD
LOCATIONBangda, China
FACILITY TYPEAIRPORT

At Paramount Business Jets you can hire chartered private jets to and from Qamdo Bangda Airport with as little as 4 hours of notice. All flights booked via Paramount Business Jets are operated by certified direct air carriers that meet and exceed the FAA part 135 and 121 protocol or a foreign equivalent safety authority. Furthermore, Paramount Business Jets subscribes to ARGUS for their third party safety checks of operators, aircraft, and crews prior each and every flight to and from Qamdo Bangda Airport and worldwide.

  • Quote a trip using Qamdo Bangda Airport or call us 24/7 - 365 days a year at +1-877-727-2538.
Questions? Call +1-877-727-2538

METAR Weather Data at Qamdo Bangda Airport, ZUBD

STATIONZUBD
OBSERVEDMon Aug 4, 12:00 UTC
NOWMon Oct 21, 21:22 UTC
AGE45705:22 hr ago
WINDSE at 13 mph
VISIBILITY16 miles
METARZUBD 041200Z AUTO 14006MPS 9999 /// ////// 13/06 Q1031 NOSIG

Call us on +1-877-727-2538 (24 Hours) to Hire a Private Jet or Get a Quick Quote.

Find Airports Near any Location

Processing
...